createdAt,value
2019-04-09T00:02:24.518Z,69.00
2019-04-09T00:04:54.202Z,74.50
2019-04-09T00:07:23.077Z,76.47
2019-04-09T00:09:53.753Z,70.63
2019-04-09T00:12:23.871Z,73.13
2019-04-09T00:14:53.458Z,70.03
2019-04-09T00:17:23.041Z,73.83
2019-04-09T00:19:52.380Z,65.90
2019-04-09T00:22:21.739Z,67.93
2019-04-09T00:24:51.081Z,70.13
2019-04-09T00:27:20.612Z,69.53
2019-04-09T00:29:50.519Z,68.60
2019-04-09T00:32:20.626Z,69.37
2019-04-09T00:34:50.022Z,71.43
2019-04-09T00:37:19.313Z,69.17
2019-04-09T00:39:48.882Z,65.97
2019-04-09T00:42:18.715Z,63.77
2019-04-09T00:44:48.908Z,71.00
2019-04-09T00:47:18.333Z,70.13
2019-04-09T00:49:47.601Z,62.80
2019-04-09T00:52:18.056Z,64.47
2019-04-09T00:54:48.006Z,61.13
2019-04-09T00:57:18.334Z,66.00
2019-04-09T00:59:48.676Z,73.27
2019-04-09T01:02:18.368Z,66.87
2019-04-09T01:04:48.616Z,71.13
2019-04-09T01:07:18.753Z,65.53
2019-04-09T01:09:48.213Z,63.83
2019-04-09T01:12:18.494Z,63.30
2019-04-09T01:14:48.409Z,69.33
2019-04-09T01:17:18.808Z,64.93
2019-04-09T01:19:48.695Z,65.10
2019-04-09T01:22:19.262Z,70.33
2019-04-09T01:24:54.326Z,69.20
2019-04-09T01:27:28.934Z,64.83
2019-04-09T01:30:11.711Z,64.20
2019-04-09T01:33:03.070Z,69.00
2019-04-09T01:36:03.199Z,63.03
2019-04-09T01:38:51.471Z,65.60
2019-04-09T01:41:42.511Z,70.00
2019-04-09T01:44:19.272Z,65.50
2019-04-09T01:47:02.505Z,64.70
2019-04-09T01:49:49.179Z,67.40
2019-04-09T01:52:29.808Z,69.47
2019-04-09T01:55:21.549Z,67.10
2019-04-09T01:58:08.479Z,69.40
2019-04-09T02:00:46.461Z,73.73
2019-04-09T02:03:35.603Z,70.87
2019-04-09T02:06:15.268Z,70.30
2019-04-09T02:09:18.458Z,63.10
2019-04-09T02:12:06.183Z,65.17
2019-04-09T02:15:00.732Z,69.17
2019-04-09T02:17:46.818Z,67.70
2019-04-09T02:20:30.978Z,72.33
2019-04-09T02:23:22.261Z,67.13
2019-04-09T02:26:06.385Z,75.43
2019-04-09T02:28:58.212Z,70.17
2019-04-09T02:32:02.076Z,79.17
2019-04-09T02:34:50.055Z,72.70
2019-04-09T02:37:45.267Z,71.80
2019-04-09T02:40:45.911Z,74.33
2019-04-09T02:43:41.216Z,77.30
2019-04-09T02:46:38.515Z,70.70
2019-04-09T02:49:32.876Z,71.30
2019-04-09T02:52:33.774Z,71.63
2019-04-09T02:55:18.237Z,72.33
2019-04-09T02:58:07.126Z,75.07
2019-04-09T03:01:04.981Z,70.40
2019-04-09T03:04:08.724Z,76.00
2019-04-09T03:06:45.234Z,65.27
2019-04-09T03:09:24.909Z,73.50
2019-04-09T03:12:04.883Z,75.80
2019-04-09T03:14:56.165Z,70.60
2019-04-09T03:17:44.088Z,68.27
2019-04-09T03:20:45.082Z,74.27
2019-04-09T03:23:29.546Z,70.57
2019-04-09T03:26:23.591Z,72.80
2019-04-09T03:29:00.163Z,71.57
2019-04-09T03:31:39.157Z,72.30
2019-04-09T03:34:35.105Z,72.43
2019-04-09T03:37:18.897Z,71.20
2019-04-09T03:40:02.905Z,70.80
2019-04-09T03:42:50.090Z,73.90
2019-04-09T03:45:28.935Z,66.67
2019-04-09T03:48:32.138Z,67.73
2019-04-09T03:51:15.061Z,66.80
2019-04-09T03:54:06.427Z,69.50
2019-04-09T03:56:57.207Z,70.57
2019-04-09T03:59:44.224Z,71.23
2019-04-09T04:02:44.702Z,65.93
2019-04-09T04:05:23.022Z,67.57
2019-04-09T04:08:23.165Z,69.57
2019-04-09T04:11:09.787Z,68.70
2019-04-09T04:13:57.794Z,71.37
2019-04-09T04:16:38.558Z,70.37
2019-04-09T04:19:25.599Z,68.17
2019-04-09T04:22:22.848Z,68.80
2019-04-09T04:25:14.414Z,69.97
2019-04-09T04:27:57.491Z,66.60
2019-04-09T04:30:44.391Z,67.07
2019-04-09T04:33:29.397Z,70.90
2019-04-09T04:36:05.932Z,66.97
2019-04-09T04:38:47.486Z,71.83
2019-04-09T04:41:29.917Z,67.67
2019-04-09T04:44:16.562Z,65.93
2019-04-09T04:47:09.771Z,67.70
2019-04-09T04:49:47.610Z,73.10
2019-04-09T04:52:35.898Z,69.00
2019-04-09T04:55:30.227Z,67.80
2019-04-09T04:58:21.659Z,69.87
2019-04-09T05:01:03.809Z,62.80
2019-04-09T05:03:40.887Z,73.80
2019-04-09T05:06:32.243Z,72.80
2019-04-09T05:09:12.519Z,67.97
2019-04-09T05:12:07.695Z,66.93
2019-04-09T05:14:55.058Z,64.87
2019-04-09T05:17:49.208Z,65.90
2019-04-09T05:20:49.338Z,69.30
2019-04-09T05:23:49.985Z,68.93
2019-04-09T05:26:56.260Z,68.90
2019-04-09T05:29:36.188Z,71.20
2019-04-09T05:32:30.469Z,62.27
2019-04-09T05:35:21.118Z,70.60
2019-04-09T05:37:55.496Z,63.27
2019-04-09T05:40:43.875Z,68.80
2019-04-09T05:47:01.938Z,68.20
2019-04-09T05:49:38.460Z,73.23
2019-04-09T05:52:25.416Z,72.27
2019-04-09T05:55:06.412Z,65.30
2019-04-09T05:57:49.948Z,64.70
2019-04-09T06:00:34.484Z,65.60
2019-04-09T06:03:10.022Z,69.80
2019-04-09T06:05:49.708Z,69.83
2019-04-09T06:08:26.054Z,69.03
2019-04-09T06:10:55.700Z,70.00
2019-04-09T06:13:25.434Z,69.47
2019-04-09T06:15:55.296Z,74.23
2019-04-09T06:18:24.683Z,80.47
2019-04-09T06:20:54.199Z,75.23
2019-04-09T06:23:23.800Z,73.23
2019-04-09T06:25:53.789Z,71.37
2019-04-09T06:28:23.158Z,74.60
2019-04-09T06:30:52.492Z,75.93
2019-04-09T06:33:39.884Z,81.20
2019-04-09T06:36:31.921Z,83.33
2019-04-09T06:39:20.828Z,76.37
2019-04-09T06:42:04.640Z,76.87
2019-04-09T06:44:45.388Z,75.00
2019-04-09T06:47:48.916Z,78.67
2019-04-09T06:50:43.179Z,78.80
2019-04-09T06:53:19.506Z,88.30
2019-04-09T06:56:11.476Z,81.13
2019-04-09T06:58:55.653Z,86.40
2019-04-09T07:01:39.311Z,80.40
2019-04-09T07:04:28.123Z,82.23
2019-04-09T07:07:15.679Z,84.37
2019-04-09T07:09:52.412Z,86.23
2019-04-09T07:12:55.954Z,83.97
2019-04-09T07:15:37.652Z,90.90
2019-04-09T07:18:35.612Z,84.80
2019-04-09T07:21:24.395Z,89.97
2019-04-09T07:24:18.821Z,86.77
2019-04-09T07:27:14.009Z,80.23
2019-04-09T07:30:07.969Z,85.73
2019-04-09T07:32:43.604Z,96.60
2019-04-09T07:35:26.099Z,85.53
2019-04-09T07:38:06.414Z,89.27
2019-04-09T07:40:53.168Z,89.90
2019-04-09T07:43:44.510Z,87.33
2019-04-09T07:46:32.116Z,86.90
2019-04-09T07:49:30.116Z,92.37
2019-04-09T07:52:28.310Z,86.13
2019-04-09T07:55:12.154Z,87.57
2019-04-09T07:57:53.076Z,86.73
2019-04-09T08:00:44.220Z,91.37
2019-04-09T08:03:31.174Z,87.27
2019-04-09T08:06:09.161Z,84.90
2019-04-09T08:09:03.536Z,89.43
2019-04-09T08:11:50.453Z,86.20
2019-04-09T08:14:37.542Z,88.30
2019-04-09T08:17:25.909Z,86.63
2019-04-09T08:20:25.329Z,86.07
2019-04-09T08:23:05.987Z,86.17
2019-04-09T08:25:51.940Z,85.90
2019-04-09T08:28:27.789Z,81.80
2019-04-09T08:31:24.913Z,95.27
2019-04-09T08:34:09.484Z,85.50
2019-04-09T08:36:58.763Z,97.43
2019-04-09T08:39:51.060Z,93.40
2019-04-09T08:42:37.429Z,94.90
2019-04-09T08:45:28.528Z,91.13
2019-04-09T08:48:32.528Z,89.47
2019-04-09T08:51:29.409Z,95.10
2019-04-09T08:54:20.176Z,87.87
2019-04-09T08:56:54.537Z,99.40
2019-04-09T08:59:39.647Z,84.50
2019-04-09T09:02:50.079Z,94.17
2019-04-09T09:05:33.796Z,95.17
2019-04-09T09:08:18.948Z,89.67
2019-04-09T09:11:06.222Z,85.80
2019-04-09T09:13:50.365Z,79.33
2019-04-09T09:16:30.120Z,89.00
2019-04-09T09:19:24.614Z,89.80
2019-04-09T09:22:14.729Z,89.30
2019-04-09T09:24:59.810Z,90.70
2019-04-09T09:27:54.033Z,96.93
2019-04-09T09:30:54.593Z,95.60
2019-04-09T09:33:23.887Z,100.27
2019-04-09T09:36:08.463Z,84.77
2019-04-09T09:38:56.153Z,92.30
2019-04-09T09:41:52.597Z,92.97
2019-04-09T09:44:44.259Z,95.57
2019-04-09T09:47:35.291Z,91.03
2019-04-09T09:50:20.167Z,91.60
2019-04-09T09:53:13.363Z,88.20
2019-04-09T09:56:00.834Z,90.17
2019-04-09T09:58:38.228Z,99.90
2019-04-09T10:01:34.619Z,90.47
2019-04-09T10:04:32.693Z,100.03
2019-04-09T10:07:14.773Z,90.87
2019-04-09T10:09:54.524Z,98.80
2019-04-09T10:12:39.653Z,101.07
2019-04-09T10:15:21.905Z,104.77
2019-04-09T10:18:21.001Z,97.50
2019-04-09T10:21:15.118Z,107.63
2019-04-09T10:24:09.164Z,104.83
2019-04-09T10:27:00.422Z,87.47
2019-04-09T10:29:51.887Z,94.90
2019-04-09T10:32:40.281Z,97.33
2019-04-09T10:35:43.050Z,112.63
2019-04-09T10:38:49.730Z,104.73
2019-04-09T10:41:44.178Z,105.33
2019-04-09T10:44:19.158Z,94.53
2019-04-09T10:47:14.083Z,102.17
2019-04-09T10:49:56.388Z,88.83
2019-04-09T10:52:54.188Z,83.83
2019-04-09T10:59:00.531Z,85.17
2019-04-09T11:01:55.535Z,77.80
2019-04-09T11:04:42.785Z,95.80
2019-04-09T11:07:35.967Z,92.63
2019-04-09T11:10:29.500Z,100.40
2019-04-09T11:13:25.712Z,107.20
2019-04-09T11:16:27.671Z,106.60
2019-04-09T11:19:18.923Z,102.83
2019-04-09T11:22:10.164Z,106.93
2019-04-09T11:25:03.902Z,113.13
2019-04-09T11:27:47.554Z,110.30
2019-04-09T11:30:42.588Z,111.40
2019-04-09T11:33:37.360Z,112.07
2019-04-09T11:36:36.921Z,102.87
2019-04-09T11:39:45.350Z,94.90
2019-04-09T11:42:32.104Z,89.87
2019-04-09T11:45:19.675Z,90.30
2019-04-09T11:48:07.658Z,87.20
2019-04-09T11:50:54.774Z,88.00
2019-04-09T11:53:57.869Z,98.20
2019-04-09T11:56:40.156Z,69.03
2019-04-09T11:59:31.819Z,77.20
2019-04-09T12:02:14.974Z,83.80
2019-04-09T12:05:04.605Z,98.13
2019-04-09T12:07:44.255Z,78.73
2019-04-09T12:10:52.459Z,70.63
2019-04-09T12:13:40.351Z,65.60
2019-04-09T12:16:27.331Z,69.77
2019-04-09T12:19:24.207Z,60.63
2019-04-09T12:22:15.176Z,66.77
2019-04-09T12:24:57.722Z,64.07
2019-04-09T12:27:49.024Z,64.37
2019-04-09T12:30:31.791Z,62.40
2019-04-09T12:33:23.508Z,61.27
2019-04-09T12:36:16.307Z,63.20
2019-04-09T12:39:17.820Z,60.17
2019-04-09T12:42:01.837Z,58.17
2019-04-09T12:44:47.990Z,60.37
2019-04-09T12:47:42.409Z,61.10
2019-04-09T12:50:29.865Z,55.07
2019-04-09T12:53:09.919Z,61.17
2019-04-09T12:55:46.646Z,60.73
2019-04-09T12:58:32.641Z,66.33
2019-04-09T13:01:09.517Z,62.50
2019-04-09T13:03:51.459Z,60.20
2019-04-09T13:06:58.218Z,58.40
2019-04-09T13:09:46.780Z,63.43
2019-04-09T13:12:36.085Z,59.40
2019-04-09T13:15:23.983Z,64.17
2019-04-09T13:18:11.147Z,55.50
2019-04-09T13:20:56.945Z,56.90
2019-04-09T13:23:44.954Z,60.87
2019-04-09T13:26:24.744Z,58.97
2019-04-09T13:29:12.481Z,58.00
2019-04-09T13:31:54.989Z,55.67
2019-04-09T13:34:55.500Z,57.37
2019-04-09T13:37:39.003Z,54.90
2019-04-09T13:40:34.138Z,54.07
2019-04-09T13:43:13.311Z,60.47
2019-04-09T13:46:04.684Z,58.70
2019-04-09T13:48:40.743Z,60.90
2019-04-09T13:51:42.275Z,64.17
2019-04-09T13:54:11.684Z,59.20
2019-04-09T13:56:41.108Z,61.53
2019-04-09T13:59:10.512Z,61.23
2019-04-09T14:01:40.849Z,55.70
2019-04-09T14:04:27.216Z,49.37
2019-04-09T14:06:56.672Z,50.10
2019-04-09T14:09:25.962Z,48.33
2019-04-09T14:11:55.290Z,48.40
2019-04-09T14:14:24.709Z,47.20
2019-04-09T14:16:55.354Z,51.93
2019-04-09T14:19:26.143Z,48.47
2019-04-09T14:21:55.606Z,47.17
2019-04-09T14:24:25.001Z,48.10
2019-04-09T14:26:55.302Z,42.90
2019-04-09T14:29:24.785Z,44.33
2019-04-09T14:31:54.073Z,45.97
2019-04-09T14:34:23.361Z,48.00
2019-04-09T14:36:52.921Z,49.47
2019-04-09T14:39:22.330Z,49.77
2019-04-09T14:41:52.562Z,48.20
2019-04-09T14:44:22.123Z,47.73
2019-04-09T14:46:51.535Z,49.70
2019-04-09T14:49:21.651Z,50.50
2019-04-09T14:51:51.898Z,50.37
2019-04-09T14:54:21.298Z,49.30
2019-04-09T14:56:50.647Z,47.73
2019-04-09T14:59:20.081Z,45.33
2019-04-09T15:01:49.401Z,44.57
2019-04-09T15:04:18.664Z,42.90
2019-04-09T15:06:51.040Z,43.20
2019-04-09T15:09:19.101Z,42.87
2019-04-09T15:11:48.394Z,41.80
2019-04-09T15:14:17.707Z,39.33
2019-04-09T15:16:47.105Z,41.03
2019-04-09T15:19:16.959Z,40.93
2019-04-09T15:21:57.731Z,42.60
2019-04-09T15:24:27.971Z,38.73
2019-04-09T15:26:57.345Z,39.77
2019-04-09T15:29:27.358Z,38.90
2019-04-09T15:31:58.340Z,38.40
2019-04-09T15:34:28.667Z,39.47
2019-04-09T15:36:58.407Z,39.10
2019-04-09T15:39:27.761Z,42.17
2019-04-09T15:41:57.509Z,36.67
2019-04-09T15:44:27.247Z,38.73
2019-04-09T15:46:56.734Z,38.83
2019-04-09T15:49:26.278Z,39.23
2019-04-09T15:51:55.619Z,35.33
2019-04-09T15:54:24.918Z,37.93
2019-04-09T15:56:55.147Z,35.80
2019-04-09T15:59:24.608Z,33.47
2019-04-09T16:01:54.097Z,31.80
2019-04-09T16:04:23.836Z,29.70
2019-04-09T16:06:53.227Z,30.53
2019-04-09T16:09:22.942Z,29.27
2019-04-09T16:11:52.411Z,32.30
2019-04-09T16:14:22.496Z,30.90
2019-04-09T16:16:52.526Z,28.00
2019-04-09T16:19:21.914Z,28.10
2019-04-09T16:21:51.581Z,28.33
2019-04-09T16:24:21.394Z,28.40
2019-04-09T16:26:50.892Z,26.50
2019-04-09T16:29:22.415Z,26.70
2019-04-09T16:31:51.759Z,23.70
2019-04-09T16:34:21.137Z,20.93
2019-04-09T16:37:00.940Z,18.67
2019-04-09T16:39:22.428Z,20.30
2019-04-09T16:41:52.333Z,17.70
2019-04-09T16:44:24.230Z,16.80
2019-04-09T16:46:53.776Z,17.20
2019-04-09T16:49:25.161Z,17.93
2019-04-09T16:51:55.570Z,17.80
2019-04-09T16:54:27.109Z,16.73
2019-04-09T16:56:57.326Z,16.47
2019-04-09T16:59:28.203Z,20.37
2019-04-09T17:02:00.488Z,18.77
2019-04-09T17:04:30.757Z,19.43
2019-04-09T17:07:01.695Z,19.33
2019-04-09T17:09:36.786Z,21.47
2019-04-09T17:12:03.079Z,22.27
2019-04-09T17:14:35.496Z,22.50
2019-04-09T17:17:04.786Z,21.73
2019-04-09T17:19:35.202Z,20.60
2019-04-09T17:22:06.150Z,22.83
2019-04-09T17:24:35.581Z,22.03
2019-04-09T17:27:07.637Z,22.03
2019-04-09T17:29:37.764Z,21.40
2019-04-09T17:32:07.438Z,22.27
2019-04-09T17:34:38.384Z,23.63
2019-04-09T17:37:09.861Z,22.13
2019-04-09T17:39:39.663Z,22.37
2019-04-09T17:42:11.928Z,22.17
2019-04-09T17:44:41.682Z,22.87
2019-04-09T17:47:14.067Z,20.70
2019-04-09T17:49:43.429Z,22.87
2019-04-09T17:52:13.478Z,21.87
2019-04-09T17:54:44.059Z,23.70
2019-04-09T17:57:13.517Z,25.13
2019-04-09T17:59:43.045Z,24.83
2019-04-09T18:02:12.433Z,25.70
2019-04-09T18:04:48.601Z,28.00
2019-04-09T18:07:12.813Z,24.70
2019-04-09T18:09:42.290Z,25.30
2019-04-09T18:12:11.852Z,25.07
2019-04-09T18:14:41.184Z,24.07
2019-04-09T18:20:39.105Z,22.43
2019-04-09T18:23:09.627Z,24.17
2019-04-09T18:25:53.230Z,24.37
2019-04-09T18:28:14.156Z,23.60
2019-04-09T18:30:44.483Z,24.33
2019-04-09T18:33:14.300Z,24.07
2019-04-09T18:35:44.091Z,25.10
2019-04-09T18:38:14.633Z,24.17
2019-04-09T18:40:44.942Z,24.10
2019-04-09T18:43:14.914Z,23.83
2019-04-09T18:45:44.418Z,21.67
2019-04-09T18:48:14.115Z,25.90
2019-04-09T18:50:43.527Z,26.43
2019-04-09T18:53:13.010Z,22.53
2019-04-09T18:55:42.688Z,27.80
2019-04-09T18:58:12.021Z,26.37
2019-04-09T19:00:42.283Z,26.67
2019-04-09T19:03:11.850Z,27.67
2019-04-09T19:05:41.334Z,29.27
2019-04-09T19:08:10.685Z,29.17
2019-04-09T19:10:41.172Z,26.17
2019-04-09T19:13:12.713Z,27.07
2019-04-09T19:15:41.881Z,28.93
2019-04-09T19:18:11.267Z,28.57
2019-04-09T19:20:40.574Z,29.17
2019-04-09T19:23:10.013Z,29.70
2019-04-09T19:25:40.053Z,30.10
2019-04-09T19:28:09.845Z,28.83
2019-04-09T19:30:40.695Z,27.73
2019-04-09T19:33:10.130Z,30.17
2019-04-09T19:35:39.871Z,31.87
2019-04-09T19:38:12.148Z,29.77
2019-04-09T19:40:40.510Z,28.00
2019-04-09T19:43:10.332Z,27.93
2019-04-09T19:45:41.629Z,28.20
2019-04-09T19:48:10.980Z,28.40
2019-04-09T19:50:41.731Z,27.40
2019-04-09T19:53:11.674Z,29.83
2019-04-09T19:55:41.043Z,28.00
2019-04-09T19:58:10.649Z,28.83
2019-04-09T20:00:40.081Z,28.93
2019-04-09T20:03:09.635Z,30.37
2019-04-09T20:05:41.377Z,29.50
2019-04-09T20:08:11.113Z,29.97
2019-04-09T20:10:44.715Z,29.03
2019-04-09T20:13:14.554Z,29.17
2019-04-09T20:15:43.960Z,29.30
2019-04-09T20:18:13.508Z,29.73
2019-04-09T20:20:43.197Z,30.63
2019-04-09T20:23:12.578Z,31.40
2019-04-09T20:25:41.963Z,29.80
2019-04-09T20:28:11.909Z,30.23
2019-04-09T20:30:41.480Z,27.30
2019-04-09T20:33:10.868Z,28.17
2019-04-09T20:35:46.548Z,30.17
2019-04-09T20:38:11.287Z,27.83
2019-04-09T20:40:40.730Z,30.57
2019-04-09T20:43:11.058Z,27.30
2019-04-09T20:45:40.719Z,27.43
2019-04-09T20:48:11.176Z,28.37
2019-04-09T20:50:40.572Z,28.83
2019-04-09T20:53:09.908Z,28.87
2019-04-09T20:55:40.177Z,29.27
2019-04-09T20:58:10.611Z,30.97
2019-04-09T21:01:09.162Z,30.60
2019-04-09T21:03:53.968Z,29.77
2019-04-09T21:06:24.820Z,28.63
2019-04-09T21:08:54.206Z,29.60
2019-04-09T21:11:24.384Z,29.83
2019-04-09T21:13:53.809Z,28.93
2019-04-09T21:16:23.261Z,29.63
2019-04-09T21:18:52.702Z,28.67
2019-04-09T21:21:22.910Z,29.40
2019-04-09T21:23:53.130Z,30.23
2019-04-09T21:26:23.051Z,27.50
2019-04-09T21:28:54.105Z,28.90
2019-04-09T21:31:25.100Z,29.83
2019-04-09T21:33:55.010Z,30.47
2019-04-09T21:36:24.998Z,30.30
2019-04-09T21:38:54.448Z,29.90
2019-04-09T21:41:24.198Z,29.00
2019-04-09T21:43:53.554Z,26.57
2019-04-09T21:46:23.606Z,31.03
2019-04-09T21:48:53.693Z,27.77
2019-04-09T21:51:23.819Z,29.03
2019-04-09T21:53:54.283Z,30.10
2019-04-09T21:56:24.464Z,28.50
2019-04-09T21:58:53.804Z,27.37
2019-04-09T22:01:23.539Z,30.50
2019-04-09T22:03:52.782Z,31.00
2019-04-09T22:06:28.209Z,29.43
2019-04-09T22:08:54.416Z,27.77
2019-04-09T22:11:24.555Z,29.73
2019-04-09T22:13:54.046Z,29.33
2019-04-09T22:16:24.207Z,27.77
2019-04-09T22:18:54.322Z,29.50
2019-04-09T22:21:23.742Z,30.47
2019-04-09T22:23:55.385Z,25.40
2019-04-09T22:26:25.310Z,27.37
2019-04-09T22:28:54.879Z,30.80
2019-04-09T22:31:24.271Z,30.37
2019-04-09T22:33:53.546Z,29.60
2019-04-09T22:36:31.023Z,28.13
2019-04-09T22:38:53.970Z,32.70
2019-04-09T22:41:23.307Z,30.67
2019-04-09T22:43:53.228Z,27.50
2019-04-09T22:46:22.664Z,30.80
2019-04-09T22:48:52.845Z,29.87
2019-04-09T22:51:23.098Z,30.90
2019-04-09T22:53:52.663Z,30.53
2019-04-09T22:56:22.859Z,29.47
2019-04-09T22:58:53.242Z,30.20
2019-04-09T23:01:40.625Z,29.37
2019-04-09T23:04:38.128Z,29.77
2019-04-09T23:07:18.653Z,28.23
2019-04-09T23:09:58.183Z,30.20
2019-04-09T23:12:36.083Z,29.40
2019-04-09T23:15:08.820Z,30.83
2019-04-09T23:17:38.165Z,28.50
2019-04-09T23:20:07.794Z,29.83
2019-04-09T23:22:38.363Z,30.03
2019-04-09T23:25:08.466Z,31.13
2019-04-09T23:27:38.771Z,29.50
2019-04-09T23:30:08.330Z,28.87
2019-04-09T23:32:37.632Z,30.07
2019-04-09T23:35:08.503Z,31.77
2019-04-09T23:37:37.863Z,28.93
2019-04-09T23:40:07.602Z,32.13
2019-04-09T23:42:37.235Z,28.30
2019-04-09T23:45:06.731Z,28.80
2019-04-09T23:47:36.006Z,27.30
2019-04-09T23:50:06.650Z,28.47
2019-04-09T23:52:36.524Z,26.77
2019-04-09T23:55:06.873Z,28.00
2019-04-09T23:57:39.016Z,28.43
